Time,TemperatureF,DewpointF,PressureIn,WindDirection,WindDirectionDegrees,WindSpeedMPH,WindSpeedGustMPH,Humidity,HourlyPrecipIn,Conditions,Clouds,dailyrainin,SoftwareType,DateUTC
2013-09-15 00:02:00,-999.0,-99.9,30.09,WNW,282,0.0,0.0,-999,-99.99,,,-99.99,,2013-09-15 04:02:00,
2013-09-15 00:14:00,58.0,54.0,30.09,WNW,282,0.0,0.0,87,0.00,,,0.00,,2013-09-15 04:14:00,
2013-09-15 00:24:00,58.0,54.0,30.09,WNW,282,0.0,0.0,87,0.00,,,0.00,,2013-09-15 04:24:00,
2013-09-15 00:55:00,58.0,54.0,30.09,NW,323,0.0,0.0,87,0.00,,,0.00,,2013-09-15 04:55:00,
2013-09-15 01:13:00,58.0,54.0,30.10,NNW,328,0.0,0.0,85,0.00,,,0.00,,2013-09-15 05:13:00,
2013-09-15 01:22:00,58.0,54.0,30.10,NNW,328,0.0,0.0,85,0.00,,,0.00,,2013-09-15 05:22:00,
2013-09-15 01:52:00,57.0,53.0,30.10,WNW,288,0.0,0.0,87,0.00,,,0.00,,2013-09-15 05:52:00,
2013-09-15 02:12:00,57.0,53.0,30.09,WNW,288,0.0,0.0,87,0.00,,,0.00,,2013-09-15 06:12:00,
2013-09-15 02:21:00,57.0,53.0,30.09,WNW,288,0.0,0.0,87,0.00,,,0.00,,2013-09-15 06:21:00,
2013-09-15 02:33:00,57.0,53.0,30.09,WNW,288,0.0,0.0,87,0.00,,,0.00,,2013-09-15 06:33:00,
2013-09-15 02:42:00,57.0,53.0,30.09,WNW,288,0.0,0.0,87,0.00,,,0.00,,2013-09-15 06:42:00,
2013-09-15 03:11:00,57.0,53.0,30.10,WNW,288,0.0,0.0,88,0.00,,,0.00,,2013-09-15 07:11:00,
2013-09-15 03:22:00,57.0,53.0,30.10,WNW,288,0.0,0.0,87,0.00,,,0.00,,2013-09-15 07:22:00,
2013-09-15 03:42:00,57.0,53.0,30.10,WNW,288,0.0,0.0,88,0.00,,,0.00,,2013-09-15 07:42:00,
2013-09-15 03:52:00,57.0,53.0,30.10,WNW,288,0.0,0.0,88,0.00,,,0.00,,2013-09-15 07:52:00,
2013-09-15 04:11:00,57.0,53.0,30.10,WNW,288,0.0,0.0,87,0.00,,,0.00,,2013-09-15 08:11:00,
2013-09-15 04:22:00,57.0,53.0,30.10,WNW,288,0.0,0.0,87,0.00,,,0.00,,2013-09-15 08:22:00,
2013-09-15 04:32:00,57.0,53.0,30.10,WNW,288,0.0,0.0,87,0.00,,,0.00,,2013-09-15 08:32:00,
2013-09-15 04:52:00,57.0,53.0,30.11,WNW,288,0.0,0.0,88,0.00,,,0.00,,2013-09-15 08:52:00,
2013-09-15 05:12:00,57.0,53.0,30.12,WNW,288,0.0,0.0,88,0.00,,,0.00,,2013-09-15 09:12:00,
2013-09-15 05:22:00,58.0,54.0,30.12,WNW,288,0.0,0.0,88,0.00,,,0.00,,2013-09-15 09:22:00,
2013-09-15 05:53:00,57.0,53.0,30.12,WNW,288,0.0,0.0,88,0.00,,,0.00,,2013-09-15 09:53:00,
2013-09-15 06:13:00,57.0,53.0,30.12,WNW,288,0.0,0.0,88,0.00,,,0.00,,2013-09-15 10:13:00,
2013-09-15 06:23:00,57.0,53.0,30.12,WNW,288,0.0,0.0,88,0.00,,,0.00,,2013-09-15 10:23:00,
2013-09-15 06:43:00,57.0,54.0,30.13,WNW,288,0.0,0.0,89,0.00,,,0.00,,2013-09-15 10:43:00,
2013-09-15 06:53:00,57.0,54.0,30.13,WNW,288,0.0,0.0,89,0.00,,,0.00,,2013-09-15 10:53:00,
2013-09-15 07:22:00,57.0,53.0,30.13,WNW,288,0.0,0.0,88,0.00,,,0.00,,2013-09-15 11:22:00,
2013-09-15 07:52:00,57.0,54.0,30.14,WNW,288,0.0,0.0,89,0.00,,,0.00,,2013-09-15 11:52:00,
2013-09-15 08:12:00,57.0,54.0,30.15,WNW,288,0.0,0.0,89,0.00,,,0.00,,2013-09-15 12:12:00,
2013-09-15 08:21:00,57.0,54.0,30.15,WNW,288,0.0,0.0,89,0.00,,,0.00,,2013-09-15 12:21:00,
2013-09-15 08:52:00,58.0,55.0,30.15,WNW,288,0.0,0.0,91,0.00,,,0.00,,2013-09-15 12:52:00,
2013-09-15 09:11:00,58.0,55.0,30.15,WNW,288,0.0,0.0,91,0.00,,,0.00,,2013-09-15 13:11:00,
2013-09-15 09:22:00,59.0,56.0,30.15,WNW,288,0.0,0.0,89,0.00,,,0.00,,2013-09-15 13:22:00,
2013-09-15 09:42:00,59.0,56.0,30.16,WNW,288,0.0,0.0,89,0.00,,,0.00,,2013-09-15 13:42:00,
2013-09-15 09:52:00,59.0,56.0,30.16,WNW,288,0.0,0.0,89,0.00,,,0.00,,2013-09-15 13:52:00,
2013-09-15 10:22:00,61.0,57.0,30.16,WNW,288,0.0,0.0,88,0.00,,,0.00,,2013-09-15 14:22:00,
2013-09-15 15:22:00,73.0,60.0,30.11,SW,223,2.0,3.0,63,0.00,,,0.00,,2013-09-15 19:22:00,
2013-09-15 15:32:00,73.0,60.0,30.11,SW,223,2.0,3.0,63,0.00,,,0.00,,2013-09-15 19:32:00,
2013-09-15 15:52:00,72.0,58.0,30.09,SE,133,0.0,0.0,61,0.00,,,0.00,,2013-09-15 19:52:00,
2013-09-15 16:02:00,72.0,58.0,30.09,SE,133,0.0,0.0,61,0.00,,,0.00,,2013-09-15 20:02:00,
2013-09-15 16:11:00,72.0,58.0,30.09,SE,133,0.0,0.0,61,0.00,,,0.00,,2013-09-15 20:11:00,
2013-09-15 16:22:00,72.0,59.0,30.09,SSW,210,3.0,4.0,64,0.00,,,0.00,,2013-09-15 20:22:00,
2013-09-15 16:53:00,71.0,58.0,30.08,SSE,167,0.0,0.0,64,0.00,,,0.00,,2013-09-15 20:53:00,
2013-09-15 17:11:00,70.0,59.0,30.08,SSW,202,0.0,0.0,67,0.00,,,0.00,,2013-09-15 21:11:00,
2013-09-15 17:22:00,71.0,59.0,30.08,South,172,0.0,0.0,66,0.00,,,0.00,,2013-09-15 21:22:00,
2013-09-15 17:54:00,70.0,60.0,30.08,SSE,166,0.0,0.0,71,0.00,,,0.00,,2013-09-15 21:54:00,
2013-09-15 18:14:00,70.0,61.0,30.09,SW,219,0.0,0.0,73,0.00,,,0.00,,2013-09-15 22:14:00,
2013-09-15 18:23:00,70.0,61.0,30.09,SW,219,0.0,0.0,73,0.00,,,0.00,,2013-09-15 22:23:00,
2013-09-15 18:54:00,69.0,60.0,30.09,SW,236,0.0,0.0,74,0.00,,,0.00,,2013-09-15 22:54:00,
2013-09-15 19:12:00,68.0,60.0,30.09,SW,219,0.0,0.0,76,0.00,,,0.00,,2013-09-15 23:12:00,
2013-09-15 19:22:00,68.0,61.0,30.09,West,268,0.0,0.0,79,0.00,,,0.00,,2013-09-15 23:22:00,
2013-09-15 19:52:00,66.0,60.0,30.10,West,268,0.0,0.0,82,0.00,,,0.00,,2013-09-15 23:52:00,
2013-09-15 20:11:00,66.0,61.0,30.10,West,268,0.0,0.0,83,0.00,,,0.00,,2013-09-16 00:11:00,
2013-09-15 20:22:00,66.0,61.0,30.10,West,268,0.0,0.0,83,0.00,,,0.00,,2013-09-16 00:22:00,
2013-09-15 20:42:00,65.0,60.0,30.10,NW,311,0.0,0.0,84,0.00,,,0.00,,2013-09-16 00:42:00,
2013-09-15 20:52:00,65.0,60.0,30.10,NW,311,0.0,0.0,84,0.00,,,0.00,,2013-09-16 00:52:00,
2013-09-15 21:12:00,64.0,59.0,30.10,NW,311,0.0,0.0,85,0.00,,,0.00,,2013-09-16 01:12:00,
2013-09-15 21:22:00,64.0,60.0,30.11,NW,311,0.0,0.0,86,0.00,,,0.00,,2013-09-16 01:22:00,
2013-09-15 21:42:00,64.0,60.0,30.11,NW,311,0.0,0.0,86,0.00,,,0.00,,2013-09-16 01:42:00,
2013-09-15 21:52:00,64.0,60.0,30.11,NW,311,0.0,0.0,87,0.00,,,0.00,,2013-09-16 01:52:00,
2013-09-15 22:22:00,63.0,59.0,30.12,NW,311,0.0,0.0,87,0.00,,,0.00,,2013-09-16 02:22:00,
2013-09-15 22:42:00,63.0,59.0,30.12,NW,311,0.0,0.0,87,0.00,,,0.00,,2013-09-16 02:42:00,
2013-09-15 22:52:00,63.0,59.0,30.12,NW,311,0.0,0.0,88,0.00,,,0.00,,2013-09-16 02:52:00,
2013-09-15 23:11:00,63.0,59.0,30.11,NW,311,0.0,0.0,88,0.00,,,0.00,,2013-09-16 03:11:00,
2013-09-15 23:22:00,63.0,59.0,30.11,NW,311,0.0,0.0,88,0.00,,,0.00,,2013-09-16 03:22:00,
2013-09-15 23:55:00,62.0,59.0,30.12,NW,311,0.0,0.0,89,0.00,,,0.00,,2013-09-16 03:55:00,